createdAt,value
2023-02-23T00:02:06.647Z,105.28
2023-02-23T00:07:08.483Z,98.93
2023-02-23T00:12:10.275Z,107.78
2023-02-23T00:17:14.914Z,109.47
2023-02-23T00:22:17.247Z,97.63
2023-02-23T00:27:20.656Z,99.25
2023-02-23T00:32:23.071Z,97.75
2023-02-23T00:37:24.985Z,102.80
2023-02-23T00:42:32.175Z,95.75
2023-02-23T00:47:34.010Z,93.60
2023-02-23T00:52:35.775Z,88.68
2023-02-23T00:57:37.744Z,95.05
2023-02-23T01:02:40.027Z,84.68
2023-02-23T01:07:41.923Z,89.65
2023-02-23T01:12:43.924Z,85.97
2023-02-23T01:17:46.945Z,84.75
2023-02-23T01:22:51.405Z,86.97
2023-02-23T01:27:54.612Z,85.18
2023-02-23T01:32:56.960Z,83.28
2023-02-23T01:38:00.405Z,81.68
2023-02-23T01:43:26.191Z,74.65
2023-02-23T01:48:40.437Z,77.07
2023-02-23T01:53:52.780Z,82.93
2023-02-23T01:58:58.145Z,83.32
2023-02-23T02:04:07.367Z,82.22
2023-02-23T02:09:17.422Z,73.13
2023-02-23T02:14:23.955Z,80.50
2023-02-23T02:19:58.022Z,79.15
2023-02-23T02:25:11.940Z,81.72
2023-02-23T02:30:48.518Z,73.55
2023-02-23T02:36:08.012Z,79.78
2023-02-23T02:41:19.109Z,83.07
2023-02-23T02:46:27.328Z,78.85
2023-02-23T02:51:59.921Z,69.15
2023-02-23T02:57:04.513Z,73.03
2023-02-23T03:02:25.461Z,65.72
2023-02-23T03:13:25.264Z,62.65
2023-02-23T03:19:17.687Z,65.20
2023-02-23T03:24:37.832Z,67.47
2023-02-23T03:30:20.937Z,73.63
2023-02-23T03:35:47.431Z,85.88
2023-02-23T03:41:09.504Z,102.60
2023-02-23T03:46:32.871Z,104.68
2023-02-23T03:51:58.696Z,120.32
2023-02-23T03:57:22.914Z,123.80
2023-02-23T04:02:45.025Z,129.60
2023-02-23T04:08:08.003Z,135.70
2023-02-23T04:13:15.459Z,130.45
2023-02-23T04:18:23.017Z,146.30
2023-02-23T04:23:25.613Z,132.60
2023-02-23T04:28:29.154Z,153.50
2023-02-23T04:33:31.106Z,116.57
2023-02-23T04:38:33.106Z,110.55
2023-02-23T04:43:34.940Z,96.80
2023-02-23T04:48:36.750Z,90.97
2023-02-23T04:53:39.028Z,85.15
2023-02-23T04:58:40.927Z,87.28
2023-02-23T05:03:42.678Z,82.82
2023-02-23T05:08:45.654Z,86.80
2023-02-23T05:13:47.569Z,76.00
2023-02-23T05:18:49.847Z,84.97
2023-02-23T05:23:51.734Z,80.70
2023-02-23T05:28:54.670Z,67.85
2023-02-23T05:33:56.419Z,74.03
2023-02-23T05:38:58.363Z,78.55
2023-02-23T05:44:00.118Z,74.13
2023-02-23T05:49:02.033Z,90.65
2023-02-23T05:54:03.901Z,77.07
2023-02-23T05:59:06.320Z,82.20
2023-02-23T06:04:08.178Z,80.10
2023-02-23T06:09:09.956Z,84.20
2023-02-23T06:14:11.862Z,87.88
2023-02-23T06:19:13.625Z,82.55
2023-02-23T06:24:15.459Z,90.75
2023-02-23T06:29:17.355Z,102.28
2023-02-23T06:34:19.308Z,85.55
2023-02-23T06:39:21.324Z,102.20
2023-02-23T06:44:23.428Z,94.63
2023-02-23T06:49:25.316Z,96.53
2023-02-23T06:54:27.140Z,93.47
2023-02-23T06:59:30.535Z,97.07
2023-02-23T07:04:33.389Z,106.70
2023-02-23T07:09:35.198Z,93.55
2023-02-23T07:14:37.770Z,90.85
2023-02-23T07:19:39.843Z,103.60
2023-02-23T07:24:41.924Z,103.30
2023-02-23T07:29:43.704Z,91.43
2023-02-23T07:34:47.870Z,103.68
2023-02-23T07:39:49.714Z,105.45
2023-02-23T07:44:51.623Z,112.57
2023-02-23T07:49:53.380Z,101.03
2023-02-23T07:54:55.148Z,124.75
2023-02-23T07:59:56.900Z,121.13
2023-02-23T08:04:59.504Z,120.95
2023-02-23T08:10:01.469Z,115.07
2023-02-23T08:15:08.360Z,116.90
2023-02-23T08:20:11.092Z,111.63
2023-02-23T08:25:12.840Z,110.68
2023-02-23T08:30:15.547Z,129.60
2023-02-23T08:35:20.115Z,118.78
2023-02-23T08:40:21.916Z,114.63
2023-02-23T08:45:23.986Z,125.45
2023-02-23T08:50:27.385Z,118.32
2023-02-23T08:55:29.564Z,137.45
2023-02-23T09:00:31.444Z,132.57
2023-02-23T09:05:36.386Z,127.28
2023-02-23T09:10:38.329Z,124.10
2023-02-23T09:15:41.119Z,133.82
2023-02-23T09:20:44.346Z,120.85
2023-02-23T09:25:46.625Z,122.95
2023-02-23T09:30:49.776Z,124.15
2023-02-23T09:35:51.760Z,121.07
2023-02-23T09:40:54.880Z,132.05
2023-02-23T09:46:24.311Z,132.32
2023-02-23T09:51:26.701Z,119.70
2023-02-23T09:56:36.537Z,124.50
2023-02-23T10:02:05.533Z,115.13
2023-02-23T10:07:10.056Z,106.50
2023-02-23T10:12:26.448Z,116.47
2023-02-23T10:17:38.887Z,104.78
2023-02-23T10:22:42.300Z,108.40
2023-02-23T10:27:50.637Z,108.03
2023-02-23T10:33:32.077Z,91.13
2023-02-23T10:38:33.834Z,81.35
2023-02-23T10:43:35.681Z,74.70
2023-02-23T10:48:41.262Z,72.50
2023-02-23T10:53:43.537Z,76.75
2023-02-23T10:58:49.745Z,66.93
2023-02-23T11:04:05.404Z,67.25
2023-02-23T11:09:46.446Z,61.70
2023-02-23T11:14:51.334Z,56.58
2023-02-23T11:19:59.069Z,49.75
2023-02-23T11:25:12.649Z,52.95
2023-02-23T11:30:14.951Z,46.03
2023-02-23T11:35:22.504Z,50.13
2023-02-23T11:40:29.354Z,47.00
2023-02-23T11:45:34.534Z,47.22
2023-02-23T11:50:36.686Z,44.35
2023-02-23T11:55:38.876Z,51.50
2023-02-23T12:00:40.766Z,40.83
2023-02-23T12:05:52.790Z,47.53
2023-02-23T12:10:58.845Z,52.97
2023-02-23T12:16:08.733Z,54.28
2023-02-23T12:21:48.356Z,56.78
2023-02-23T12:27:06.230Z,62.10
2023-02-23T12:32:23.544Z,58.25
2023-02-23T12:37:47.606Z,56.20
2023-02-23T12:43:26.953Z,60.03
2023-02-23T12:48:31.672Z,62.65
2023-02-23T12:53:44.242Z,68.22
2023-02-23T12:59:17.160Z,70.57
2023-02-23T13:04:34.102Z,75.30
2023-02-23T13:09:41.952Z,69.35
2023-02-23T13:15:18.434Z,74.55
2023-02-23T13:20:44.956Z,60.17
2023-02-23T13:26:13.025Z,72.43
2023-02-23T13:31:34.343Z,62.63
2023-02-23T13:36:37.197Z,64.00
2023-02-23T13:41:54.091Z,68.50
2023-02-23T13:47:42.411Z,67.25
2023-02-23T13:52:46.302Z,57.65
2023-02-23T13:57:48.082Z,69.72
2023-02-23T14:02:51.076Z,62.53
2023-02-23T14:07:57.049Z,67.65
2023-02-23T14:13:14.102Z,67.30
2023-02-23T14:18:21.584Z,80.35
2023-02-23T14:23:23.249Z,70.20
2023-02-23T14:28:31.226Z,71.63
2023-02-23T14:33:57.171Z,71.15
2023-02-23T14:39:17.950Z,70.18
2023-02-23T14:49:41.828Z,74.15
2023-02-23T14:54:43.561Z,67.73
2023-02-23T14:59:46.505Z,75.32
2023-02-23T15:04:48.408Z,80.32
2023-02-23T15:09:53.013Z,68.80
2023-02-23T15:15:01.962Z,65.18
2023-02-23T15:20:16.175Z,72.70
2023-02-23T15:25:26.136Z,56.20
2023-02-23T15:30:31.734Z,58.00
2023-02-23T15:35:45.184Z,64.60
2023-02-23T15:40:54.457Z,66.00
2023-02-23T15:45:59.898Z,57.50
2023-02-23T15:51:05.861Z,58.15
2023-02-23T15:56:20.050Z,60.47
2023-02-23T16:01:31.270Z,54.83
2023-02-23T16:06:39.639Z,61.47
2023-02-23T16:11:41.640Z,52.42
2023-02-23T16:16:46.697Z,52.05
2023-02-23T16:21:56.533Z,46.03
2023-02-23T16:27:02.540Z,40.05
2023-02-23T16:32:16.471Z,30.23
2023-02-23T16:37:25.286Z,29.95
2023-02-23T16:42:34.820Z,27.60
2023-02-23T16:47:42.585Z,25.20
2023-02-23T16:52:51.869Z,25.10
2023-02-23T16:58:02.192Z,24.27
2023-02-23T17:03:06.773Z,23.88
2023-02-23T17:08:10.577Z,22.38
2023-02-23T17:13:20.942Z,21.38
2023-02-23T17:18:28.767Z,19.73
2023-02-23T17:23:39.024Z,26.35
2023-02-23T17:28:41.034Z,27.20
2023-02-23T17:33:43.723Z,22.95
2023-02-23T17:38:45.846Z,23.13
2023-02-23T17:43:47.734Z,23.02
2023-02-23T17:48:49.663Z,19.88
2023-02-23T17:53:51.528Z,20.52
2023-02-23T17:58:53.416Z,19.13
2023-02-23T18:03:58.534Z,18.88
2023-02-23T18:09:01.111Z,18.58
2023-02-23T18:14:03.878Z,13.88
2023-02-23T18:19:05.820Z,16.90
2023-02-23T18:24:08.054Z,20.55
2023-02-23T18:29:09.854Z,18.98
2023-02-23T18:34:11.765Z,22.15
2023-02-23T18:39:14.039Z,22.67
2023-02-23T18:44:17.577Z,22.85
2023-02-23T18:49:22.726Z,20.13
2023-02-23T18:54:26.687Z,17.15
2023-02-23T18:59:28.473Z,17.38
2023-02-23T19:04:30.237Z,17.20
2023-02-23T19:09:32.665Z,18.23
2023-02-23T19:14:48.938Z,18.25
2023-02-23T19:19:55.102Z,23.67
2023-02-23T19:24:56.883Z,21.88
2023-02-23T19:29:58.709Z,21.33
2023-02-23T19:35:01.634Z,20.27
2023-02-23T19:40:06.338Z,22.95
2023-02-23T19:45:08.452Z,22.13
2023-02-23T19:50:12.376Z,23.33
2023-02-23T19:55:15.396Z,22.30
2023-02-23T20:00:18.043Z,25.52
2023-02-23T20:05:20.659Z,26.25
2023-02-23T20:10:26.100Z,29.10
2023-02-23T20:15:27.885Z,26.58
2023-02-23T20:20:31.702Z,27.48
2023-02-23T20:25:36.528Z,27.02
2023-02-23T20:30:38.689Z,34.90
2023-02-23T20:35:41.095Z,36.33
2023-02-23T20:40:43.254Z,36.28
2023-02-23T20:45:45.156Z,32.50
2023-02-23T20:50:46.946Z,39.00
2023-02-23T20:55:49.205Z,33.95
2023-02-23T21:00:56.720Z,32.85
2023-02-23T21:05:58.547Z,28.38
2023-02-23T21:11:05.332Z,28.45
2023-02-23T21:16:07.619Z,24.65
2023-02-23T21:21:10.021Z,24.52
2023-02-23T21:26:16.101Z,30.73
2023-02-23T21:31:18.074Z,44.70
2023-02-23T21:36:20.200Z,29.23
2023-02-23T21:41:22.406Z,44.25
2023-02-23T21:46:25.096Z,36.97
2023-02-23T21:51:27.037Z,43.50
2023-02-23T21:56:29.627Z,42.95
2023-02-23T22:01:37.684Z,54.03
2023-02-23T22:06:43.163Z,42.38
2023-02-23T22:11:47.379Z,32.03
2023-02-23T22:16:49.849Z,45.13
2023-02-23T22:21:51.767Z,38.22
2023-02-23T22:26:56.710Z,36.10
2023-02-23T22:31:58.852Z,44.42
2023-02-23T22:37:00.702Z,35.72
2023-02-23T22:42:09.238Z,35.17
2023-02-23T22:47:11.076Z,31.35
2023-02-23T22:52:12.873Z,27.10
2023-02-23T22:57:15.151Z,24.50
2023-02-23T23:02:16.894Z,32.33
2023-02-23T23:07:20.102Z,40.40
2023-02-23T23:12:21.900Z,32.90
2023-02-23T23:17:23.761Z,41.38
2023-02-23T23:22:26.143Z,23.10
2023-02-23T23:27:27.896Z,19.50
2023-02-23T23:32:29.761Z,24.23
2023-02-23T23:37:31.636Z,24.65
2023-02-23T23:42:34.980Z,22.08
2023-02-23T23:47:36.763Z,28.88
2023-02-23T23:52:43.472Z,27.73
2023-02-23T23:57:45.218Z,21.35
